createdAt,value
2018-04-13T00:00:08.824Z,94719.59
2018-04-13T00:02:36.760Z,94722.97
2018-04-13T00:05:02.153Z,94725.53
2018-04-13T00:07:28.846Z,94726.45
2018-04-13T00:09:55.539Z,94732.11
2018-04-13T00:12:22.181Z,94737.36
2018-04-13T00:14:48.869Z,94744.88
2018-04-13T00:17:15.544Z,94736.41
2018-04-13T00:19:42.198Z,94739.83
2018-04-13T00:22:08.843Z,94740.70
2018-04-13T00:24:35.561Z,94740.84
2018-04-13T00:27:02.245Z,94744.19
2018-04-13T00:29:28.916Z,94743.76
2018-04-13T00:31:56.813Z,94749.78
2018-04-13T00:34:22.193Z,94752.67
2018-04-13T00:36:51.960Z,94749.78
2018-04-13T00:39:18.563Z,94758.69
2018-04-13T00:41:45.207Z,94756.87
2018-04-13T00:44:11.885Z,94755.67
2018-04-13T00:46:38.482Z,94747.19
2018-04-13T00:49:05.124Z,94744.73
2018-04-13T00:51:31.786Z,94751.10
2018-04-13T00:53:58.423Z,94752.15
2018-04-13T00:56:25.065Z,94736.39
2018-04-13T00:58:51.696Z,94749.37
2018-04-13T01:01:18.405Z,94752.77
2018-04-13T01:03:45.179Z,94760.47
2018-04-13T01:06:11.815Z,94761.11
2018-04-13T01:08:41.895Z,94757.46
2018-04-13T01:11:11.311Z,94755.69
2018-04-13T01:13:38.032Z,94758.36
2018-04-13T01:16:04.661Z,94751.41
2018-04-13T01:18:31.299Z,94746.02
2018-04-13T01:20:57.981Z,94746.61
2018-04-13T01:23:24.617Z,94751.53
2018-04-13T01:25:51.295Z,94747.16
2018-04-13T01:28:17.950Z,94742.87
2018-04-13T01:30:44.587Z,94740.98
2018-04-13T01:33:12.542Z,94734.04
2018-04-13T01:35:37.826Z,94732.13
2018-04-13T01:38:04.481Z,94732.19
2018-04-13T01:40:32.070Z,94733.58
2018-04-13T01:42:58.731Z,94732.45
2018-04-13T01:45:25.404Z,94742.82
2018-04-13T01:47:52.043Z,94743.63
2018-04-13T01:50:18.716Z,94751.30
2018-04-13T01:52:46.649Z,94748.70
2018-04-13T01:55:11.981Z,94746.82
2018-04-13T01:57:38.617Z,94749.14
2018-04-13T02:00:05.291Z,94747.98
2018-04-13T02:02:31.932Z,94752.73
2018-04-13T02:04:58.541Z,94762.46
2018-04-13T02:07:25.211Z,94760.55
2018-04-13T02:09:51.847Z,94755.63
2018-04-13T02:12:18.526Z,94758.41
2018-04-13T02:14:45.173Z,94747.06
2018-04-13T02:17:11.887Z,94749.00
2018-04-13T02:19:38.627Z,94745.09
2018-04-13T02:22:08.169Z,94746.42
2018-04-13T02:24:34.885Z,94746.91
2018-04-13T02:27:04.417Z,94743.90
2018-04-13T02:29:31.019Z,94750.39
2018-04-13T02:31:57.722Z,94748.77
2018-04-13T02:34:24.390Z,94741.56
2018-04-13T02:36:50.990Z,94747.38
2018-04-13T02:39:17.607Z,94745.41
2018-04-13T02:41:44.364Z,94752.13
2018-04-13T02:44:10.958Z,94751.98
2018-04-13T02:46:37.905Z,94760.78
2018-04-13T02:49:04.577Z,94767.70
2018-04-13T02:51:34.376Z,94768.80
2018-04-13T02:54:01.011Z,94766.25
2018-04-13T02:56:27.682Z,94765.58
2018-04-13T02:58:54.326Z,94764.17
2018-04-13T03:01:20.926Z,94761.59
2018-04-13T03:03:47.810Z,94761.91
2018-04-13T03:06:18.509Z,94764.86
2018-04-13T03:08:45.680Z,94768.28
2018-04-13T03:11:10.459Z,94773.52
2018-04-13T03:13:37.124Z,94772.87
2018-04-13T03:16:03.856Z,94778.13
2018-04-13T03:18:30.631Z,94777.75
2018-04-13T03:20:59.805Z,94782.67
2018-04-13T03:23:26.537Z,94769.34
2018-04-13T03:25:53.218Z,94764.41
2018-04-13T03:28:20.161Z,94772.21
2018-04-13T03:30:49.770Z,94774.83
2018-04-13T03:33:16.405Z,94776.89
2018-04-13T03:35:43.058Z,94784.48
2018-04-13T03:38:09.774Z,94792.33
2018-04-13T03:40:36.426Z,94797.04
2018-04-13T03:43:03.058Z,94811.66
2018-04-13T03:45:29.813Z,94815.98
2018-04-13T03:47:56.449Z,94813.98
2018-04-13T03:50:23.133Z,94813.46
2018-04-13T03:52:49.805Z,94810.56
2018-04-13T03:55:16.448Z,94800.79
2018-04-13T03:57:43.054Z,94809.87
2018-04-13T04:00:09.729Z,94807.86
2018-04-13T04:02:36.422Z,94808.28
2018-04-13T04:05:03.067Z,94810.89
2018-04-13T04:07:30.053Z,94812.70
2018-04-13T04:09:56.763Z,94816.45
2018-04-13T04:12:23.392Z,94823.25
2018-04-13T04:14:50.122Z,94819.55
2018-04-13T04:17:16.793Z,94816.70
2018-04-13T04:19:43.533Z,94820.15
2018-04-13T04:22:10.198Z,94821.84
2018-04-13T04:24:36.803Z,94826.11
2018-04-13T04:27:03.446Z,94828.02
2018-04-13T04:29:30.157Z,94841.20
2018-04-13T04:31:56.835Z,94840.91
2018-04-13T04:34:24.912Z,94840.20
2018-04-13T04:36:50.146Z,94841.17
2018-04-13T04:39:16.813Z,94849.39
2018-04-13T04:41:43.456Z,94856.64
2018-04-13T04:44:10.068Z,94850.26
2018-04-13T04:46:36.727Z,94852.04
2018-04-13T04:49:06.244Z,94856.11
2018-04-13T04:51:34.191Z,94857.57
2018-04-13T04:53:59.578Z,94854.58
2018-04-13T04:56:26.215Z,94853.64
2018-04-13T04:58:52.900Z,94866.14
2018-04-13T05:01:19.635Z,94866.79
2018-04-13T05:03:46.363Z,94871.71
2018-04-13T05:06:13.079Z,94877.69
2018-04-13T05:08:39.751Z,94888.44
2018-04-13T05:11:06.401Z,94889.57
2018-04-13T05:13:33.117Z,94888.50
2018-04-13T05:15:59.724Z,94891.34
2018-04-13T05:18:26.362Z,94884.25
2018-04-13T05:20:53.043Z,94888.11
2018-04-13T05:23:19.655Z,94891.79
2018-04-13T05:25:46.473Z,94899.81
2018-04-13T05:28:13.158Z,94893.87
2018-04-13T05:30:39.798Z,94902.20
2018-04-13T05:33:09.399Z,94903.98
2018-04-13T05:35:36.064Z,94899.09
2018-04-13T05:38:04.018Z,94906.85
2018-04-13T05:40:30.884Z,94905.98
2018-04-13T05:42:56.052Z,94903.83
2018-04-13T05:45:22.696Z,94916.34
2018-04-13T05:47:49.326Z,94911.52
2018-04-13T05:50:16.101Z,94915.45
2018-04-13T05:52:42.742Z,94916.54
2018-04-13T05:55:10.534Z,94915.48
2018-04-13T05:57:36.027Z,94916.98
2018-04-13T06:00:02.751Z,94920.95
2018-04-13T06:02:29.411Z,94921.86
2018-04-13T06:04:56.053Z,94920.30
2018-04-13T06:07:22.725Z,94918.14
2018-04-13T06:09:49.375Z,94925.56
2018-04-13T06:12:16.029Z,94930.99
2018-04-13T06:14:42.671Z,94925.02
2018-04-13T06:17:11.420Z,94930.38
2018-04-13T06:19:35.956Z,94937.58
2018-04-13T06:22:02.686Z,94941.27
2018-04-13T06:24:31.352Z,94945.77
2018-04-13T06:26:56.021Z,94948.28
2018-04-13T06:29:22.748Z,94949.24
2018-04-13T06:31:49.361Z,94947.66
2018-04-13T06:34:16.001Z,94948.08
2018-04-13T06:36:44.773Z,94951.02
2018-04-13T06:39:10.591Z,94955.63
2018-04-13T06:41:35.949Z,94955.73
2018-04-13T06:44:02.614Z,94953.27
2018-04-13T06:46:29.247Z,94955.50
2018-04-13T06:48:55.886Z,94964.55
2018-04-13T06:51:22.553Z,94964.33
2018-04-13T06:53:49.545Z,94962.17
2018-04-13T06:56:16.188Z,94970.46
2018-04-13T06:58:42.847Z,94964.14
2018-04-13T07:01:09.523Z,94969.58
2018-04-13T07:03:36.172Z,94965.02
2018-04-13T07:06:03.585Z,94967.34
2018-04-13T07:08:30.350Z,94965.04
2018-04-13T07:10:57.030Z,94958.86
2018-04-13T07:13:23.669Z,94961.08
2018-04-13T07:15:50.373Z,94955.92
2018-04-13T07:18:18.668Z,94956.75
2018-04-13T07:20:43.683Z,94962.02
2018-04-13T07:23:10.454Z,94958.62
2018-04-13T07:25:40.312Z,94968.36
2018-04-13T07:28:06.953Z,94963.84
2018-04-13T07:30:33.590Z,94957.92
2018-04-13T07:33:00.272Z,94960.37
2018-04-13T07:35:27.439Z,94961.08
2018-04-13T07:37:54.099Z,94953.05
2018-04-13T07:40:20.869Z,94953.88
2018-04-13T07:42:47.585Z,94953.13
2018-04-13T07:45:14.243Z,94958.72
2018-04-13T07:47:40.881Z,94955.87
2018-04-13T07:50:07.565Z,94954.55
2018-04-13T07:52:36.901Z,94953.33
2018-04-13T07:55:04.795Z,94953.71
2018-04-13T07:57:30.163Z,94958.81
2018-04-13T07:59:56.836Z,94963.64
2018-04-13T08:02:24.702Z,94956.07
2018-04-13T08:04:50.192Z,94957.20
2018-04-13T08:07:16.857Z,94957.63
2018-04-13T08:09:43.522Z,94953.84
2018-04-13T08:12:10.213Z,94955.29
2018-04-13T08:14:36.849Z,94953.63
2018-04-13T08:17:05.478Z,94950.41
2018-04-13T08:19:32.121Z,94955.47
2018-04-13T08:22:04.280Z,94946.77
2018-04-13T08:24:32.275Z,94947.92
2018-04-13T08:26:57.561Z,94944.64
2018-04-13T08:29:26.510Z,94950.16
2018-04-13T08:31:53.209Z,94950.95
2018-04-13T08:34:19.814Z,94950.36
2018-04-13T08:36:46.561Z,94946.29
2018-04-13T08:39:13.230Z,94938.75
2018-04-13T08:41:42.599Z,94927.33
2018-04-13T08:44:09.270Z,94938.13
2018-04-13T08:46:35.945Z,94935.09
2018-04-13T08:49:02.761Z,94933.41
2018-04-13T08:51:29.308Z,94932.28
2018-04-13T08:53:57.141Z,94936.36
2018-04-13T08:56:23.226Z,94930.16
2018-04-13T08:58:49.817Z,94932.37
2018-04-13T09:01:19.487Z,94933.33
2018-04-13T09:03:46.093Z,94928.75
2018-04-13T09:06:12.826Z,94938.92
2018-04-13T09:08:39.476Z,94929.74
2018-04-13T09:11:06.172Z,94933.09
2018-04-13T09:13:32.798Z,94936.56
2018-04-13T09:16:09.039Z,94943.97
2018-04-13T09:18:35.665Z,94940.66
2018-04-13T09:21:02.348Z,94936.14
2018-04-13T09:23:28.986Z,94933.62
2018-04-13T09:25:57.673Z,94931.03
2018-04-13T09:28:25.138Z,94930.19
2018-04-13T09:30:51.801Z,94920.11
2018-04-13T09:33:18.551Z,94924.18
2018-04-13T09:35:45.207Z,94922.31
2018-04-13T09:38:11.844Z,94925.56
2018-04-13T09:40:38.523Z,94915.77
2018-04-13T09:43:05.146Z,94911.39
2018-04-13T09:45:31.774Z,94911.52
2018-04-13T09:47:58.548Z,94913.75
2018-04-13T09:50:29.266Z,94913.95
2018-04-13T09:52:54.513Z,94913.86
2018-04-13T09:55:24.068Z,94914.41
2018-04-13T09:57:51.162Z,94910.75
2018-04-13T10:00:17.805Z,94901.55
2018-04-13T10:02:44.466Z,94910.63
2018-04-13T10:05:11.085Z,94905.00
2018-04-13T10:07:37.794Z,94902.27
2018-04-13T10:10:04.464Z,94898.95
2018-04-13T10:12:31.075Z,94904.11
2018-04-13T10:14:57.761Z,94902.63
2018-04-13T10:17:24.362Z,94899.42
2018-04-13T10:19:51.020Z,94897.56
2018-04-13T10:22:17.700Z,94897.50
2018-04-13T10:24:46.431Z,94892.89
2018-04-13T10:27:11.085Z,94889.64
2018-04-13T10:29:39.140Z,94887.34
2018-04-13T10:32:04.576Z,94886.24
2018-04-13T10:34:31.226Z,94879.20
2018-04-13T10:36:57.853Z,94886.47
2018-04-13T10:39:24.504Z,94886.42
2018-04-13T10:41:51.181Z,94882.14
2018-04-13T10:44:19.046Z,94884.41
2018-04-13T10:46:44.560Z,94876.31
2018-04-13T10:49:11.276Z,94878.73
2018-04-13T10:51:37.983Z,94877.34
2018-04-13T10:54:05.992Z,94884.88
2018-04-13T10:56:31.285Z,94875.95
2018-04-13T10:59:01.073Z,94881.22
2018-04-13T11:01:27.794Z,94879.33
2018-04-13T11:03:54.598Z,94879.52
2018-04-13T11:06:23.172Z,94878.09
2018-04-13T11:08:51.125Z,94871.23
2018-04-13T11:11:17.786Z,94869.66
2018-04-13T11:13:44.462Z,94873.72
2018-04-13T11:16:11.256Z,94868.33
2018-04-13T11:18:37.895Z,94866.70
2018-04-13T11:21:04.533Z,94861.28
2018-04-13T11:23:31.201Z,94862.18
2018-04-13T11:25:57.973Z,94863.13
2018-04-13T11:28:24.583Z,94855.36
2018-04-13T11:30:51.268Z,94857.74
2018-04-13T11:33:17.907Z,94854.85
2018-04-13T11:35:44.554Z,94850.36
2018-04-13T11:38:11.237Z,94853.05
2018-04-13T11:40:37.950Z,94849.77
2018-04-13T11:43:05.730Z,94850.80
2018-04-13T11:45:31.228Z,94847.20
2018-04-13T11:48:01.233Z,94839.85
2018-04-13T11:50:28.199Z,94837.27
2018-04-13T11:52:54.937Z,94838.31
2018-04-13T11:55:21.626Z,94846.16
2018-04-13T11:57:48.298Z,94835.17
2018-04-13T12:00:15.012Z,94841.66
2018-04-13T12:02:41.749Z,94841.67
2018-04-13T12:05:08.382Z,94840.95
2018-04-13T12:07:35.185Z,94836.38
2018-04-13T12:10:01.840Z,94841.55
2018-04-13T12:12:28.439Z,94839.59
2018-04-13T12:14:55.147Z,94835.34
2018-04-13T12:17:21.746Z,94833.20
2018-04-13T12:19:48.478Z,94828.50
2018-04-13T12:22:15.151Z,94831.94
2018-04-13T12:24:42.705Z,94829.89
2018-04-13T12:27:09.376Z,94829.17
2018-04-13T12:29:36.118Z,94821.75
2018-04-13T12:32:02.767Z,94819.12
2018-04-13T12:34:29.547Z,94819.36
2018-04-13T12:36:56.258Z,94815.48
2018-04-13T12:39:22.901Z,94813.44
2018-04-13T12:41:49.646Z,94813.52
2018-04-13T12:44:16.277Z,94810.87
2018-04-13T12:46:43.296Z,94806.14
2018-04-13T12:49:09.903Z,94809.58
2018-04-13T12:51:36.644Z,94807.99
2018-04-13T12:54:03.424Z,94803.05
2018-04-13T12:56:30.107Z,94800.58
2018-04-13T12:58:56.779Z,94802.73
2018-04-13T13:01:23.502Z,94792.09
2018-04-13T13:03:50.698Z,94796.06
2018-04-13T13:06:17.307Z,94793.69
2018-04-13T13:08:44.036Z,94792.97
2018-04-13T13:11:10.707Z,94789.13
2018-04-13T13:13:37.442Z,94792.06
2018-04-13T13:16:04.052Z,94790.75
2018-04-13T13:18:30.790Z,94793.73
2018-04-13T13:20:57.459Z,94795.83
2018-04-13T13:23:24.081Z,94788.66
2018-04-13T13:25:50.748Z,94787.94
2018-04-13T13:28:17.474Z,94790.08
2018-04-13T13:30:46.753Z,94790.11
2018-04-13T13:33:13.743Z,94792.88
2018-04-13T13:35:40.339Z,94794.79
2018-04-13T13:38:10.486Z,94783.25
2018-04-13T13:40:37.214Z,94786.50
2018-04-13T13:43:03.923Z,94785.81
2018-04-13T13:45:30.512Z,94782.43
2018-04-13T13:47:57.152Z,94782.09
2018-04-13T13:50:23.826Z,94778.36
2018-04-13T13:52:50.457Z,94781.85
2018-04-13T13:55:17.075Z,94780.98
2018-04-13T13:57:43.723Z,94781.45
2018-04-13T14:00:10.421Z,94782.13
2018-04-13T14:02:37.097Z,94782.91
2018-04-13T14:05:06.975Z,94776.61
2018-04-13T14:07:33.588Z,94772.69
2018-04-13T14:10:00.350Z,94775.11
2018-04-13T14:12:26.966Z,94771.80
2018-04-13T14:14:53.644Z,94776.19
2018-04-13T14:17:20.272Z,94778.52
2018-04-13T14:19:46.940Z,94780.06
2018-04-13T14:22:13.565Z,94779.52
2018-04-13T14:24:40.316Z,94782.59
2018-04-13T14:27:06.955Z,94793.16
2018-04-13T14:29:36.664Z,94795.01
2018-04-13T14:32:04.550Z,94793.72
2018-04-13T14:34:29.897Z,94789.93
2018-04-13T14:36:56.534Z,94793.17
2018-04-13T14:39:23.677Z,94798.34
2018-04-13T14:41:50.312Z,94783.11
2018-04-13T14:44:16.950Z,94800.58
2018-04-13T14:46:43.707Z,94796.38
2018-04-13T14:49:10.333Z,94799.73
2018-04-13T14:51:37.027Z,94808.13
2018-04-13T14:54:03.941Z,94806.71
2018-04-13T14:56:30.567Z,94803.06
2018-04-13T14:58:57.241Z,94803.63
2018-04-13T15:01:23.945Z,94815.18
2018-04-13T15:03:50.682Z,94820.39
2018-04-13T15:06:17.292Z,94820.33
2018-04-13T15:08:43.929Z,94817.42
2018-04-13T15:11:10.565Z,94820.11
2018-04-13T15:16:06.545Z,94825.97
2018-04-13T15:18:33.203Z,94834.92
2018-04-13T15:20:59.909Z,94839.22
2018-04-13T15:23:26.679Z,94832.97
2018-04-13T15:25:55.224Z,94831.58
2018-04-13T15:28:20.009Z,94843.30
2018-04-13T15:30:46.653Z,94835.38
2018-04-13T15:33:13.433Z,94832.30
2018-04-13T15:35:40.074Z,94838.65
2018-04-13T15:38:06.676Z,94835.10
2018-04-13T15:40:33.520Z,94838.09
2018-04-13T15:43:00.201Z,94833.78
2018-04-13T15:45:26.844Z,94836.48
2018-04-13T15:47:53.607Z,94838.84
2018-04-13T15:50:20.334Z,94832.67
2018-04-13T15:52:46.932Z,94836.13
2018-04-13T15:55:13.863Z,94841.34
2018-04-13T15:57:40.524Z,94837.45
2018-04-13T16:00:07.161Z,94838.91
2018-04-13T16:02:33.844Z,94842.91
2018-04-13T16:05:00.450Z,94849.52
2018-04-13T16:07:27.179Z,94851.63
2018-04-13T16:09:56.503Z,94847.91
2018-04-13T16:12:23.190Z,94849.76
2018-04-13T16:14:51.167Z,94857.41
2018-04-13T16:17:17.821Z,94869.82
2018-04-13T16:19:43.398Z,94875.49
2018-04-13T16:22:10.109Z,94885.08
2018-04-13T16:24:36.760Z,94885.94
2018-04-13T16:27:04.783Z,94895.78
2018-04-13T16:29:30.269Z,94907.70
2018-04-13T16:31:56.939Z,94906.38
2018-04-13T16:34:23.588Z,94914.57
2018-04-13T16:36:50.478Z,94924.59
2018-04-13T16:39:17.145Z,94923.64
2018-04-13T16:41:43.819Z,94920.64
2018-04-13T16:44:10.472Z,94928.29
2018-04-13T16:46:37.221Z,94926.67
2018-04-13T16:49:05.529Z,94928.53
2018-04-13T16:51:30.545Z,94932.20
2018-04-13T16:53:57.197Z,94928.95
2018-04-13T16:56:23.862Z,94935.34
2018-04-13T16:58:50.504Z,94932.81
2018-04-13T17:01:17.245Z,94935.49
2018-04-13T17:03:45.988Z,94941.08
2018-04-13T17:06:12.614Z,94951.03
2018-04-13T17:08:39.302Z,94943.15
2018-04-13T17:11:08.913Z,94952.77
2018-04-13T17:13:35.569Z,94955.84
2018-04-13T17:16:02.202Z,94960.47
2018-04-13T17:18:28.889Z,94961.48
2018-04-13T17:20:55.555Z,94960.92
2018-04-13T17:23:22.207Z,94962.92
2018-04-13T17:25:48.976Z,94970.66
2018-04-13T17:28:15.641Z,94973.41
2018-04-13T17:30:42.310Z,94981.78
2018-04-13T17:33:08.927Z,94984.84
2018-04-13T17:35:35.559Z,94987.70
2018-04-13T17:38:03.520Z,94993.02
2018-04-13T17:40:28.849Z,94994.03
2018-04-13T17:42:55.502Z,94997.20
2018-04-13T17:45:23.593Z,95002.19
2018-04-13T17:47:48.851Z,95006.44
2018-04-13T17:50:15.454Z,95014.06
2018-04-13T17:52:42.122Z,95021.79
2018-04-13T17:55:08.761Z,95029.52
2018-04-13T17:57:35.407Z,95034.72
2018-04-13T18:00:02.078Z,95035.36
2018-04-13T18:02:28.674Z,95039.99
2018-04-13T18:04:55.319Z,95040.81
2018-04-13T18:07:23.173Z,95043.61
2018-04-13T18:09:48.674Z,95045.98
2018-04-13T18:12:15.280Z,95047.08
2018-04-13T18:14:41.977Z,95055.73
2018-04-13T18:17:08.581Z,95056.20
2018-04-13T18:19:35.225Z,95060.72
2018-04-13T18:22:01.856Z,95057.73
2018-04-13T18:24:28.536Z,95064.39
2018-04-13T18:26:55.180Z,95070.43
2018-04-13T18:29:21.799Z,95072.27
2018-04-13T18:31:48.437Z,95072.16
2018-04-13T18:34:15.059Z,95074.00
2018-04-13T18:36:41.725Z,95069.23
2018-04-13T18:39:08.353Z,95070.45
2018-04-13T18:41:34.963Z,95075.45
2018-04-13T18:44:01.637Z,95076.67
2018-04-13T18:46:28.259Z,95084.58
2018-04-13T18:48:54.868Z,95085.36
2018-04-13T18:51:21.535Z,95087.84
2018-04-13T18:53:48.142Z,95086.19
2018-04-13T18:56:14.803Z,95092.02
2018-04-13T18:58:41.444Z,95091.94
2018-04-13T19:01:08.105Z,95094.88
2018-04-13T19:03:34.775Z,95104.81
2018-04-13T19:06:01.407Z,95102.11
2018-04-13T19:08:28.045Z,95106.73
2018-04-13T19:10:54.760Z,95104.70
2018-04-13T19:13:21.313Z,95112.84
2018-04-13T19:15:47.963Z,95121.88
2018-04-13T19:18:14.672Z,95122.39
2018-04-13T19:20:41.388Z,95132.48
2018-04-13T19:23:08.034Z,95135.64
2018-04-13T19:25:34.746Z,95150.22
2018-04-13T19:28:01.452Z,95152.11
2018-04-13T19:30:30.955Z,95157.08
2018-04-13T19:32:57.612Z,95161.06
2018-04-13T19:35:28.339Z,95163.99
2018-04-13T19:37:54.857Z,95161.70
2018-04-13T19:40:20.114Z,95158.73
2018-04-13T19:42:47.186Z,95161.75
2018-04-13T19:45:13.666Z,95162.66
2018-04-13T19:47:40.299Z,95165.06
2018-04-13T19:50:06.969Z,95167.02
2018-04-13T19:52:33.610Z,95170.20
2018-04-13T19:57:26.882Z,95177.73
2018-04-13T19:59:53.611Z,95181.16
2018-04-13T20:02:20.269Z,95175.00
2018-04-13T20:04:46.905Z,95178.80
2018-04-13T20:07:13.556Z,95176.33
2018-04-13T20:09:40.231Z,95180.83
2018-04-13T20:12:06.838Z,95174.82
2018-04-13T20:14:33.608Z,95182.92
2018-04-13T20:19:26.540Z,95184.46
2018-04-13T20:21:53.250Z,95182.22
2018-04-13T20:24:19.856Z,95181.20
2018-04-13T20:26:46.482Z,95185.18
2018-04-13T20:29:13.093Z,95188.28
2018-04-13T20:31:39.723Z,95187.38
2018-04-13T20:34:08.250Z,95189.68
2018-04-13T20:36:33.040Z,95186.45
2018-04-13T20:38:59.712Z,95194.75
2018-04-13T20:41:26.418Z,95191.01
2018-04-13T20:43:53.104Z,95197.72
2018-04-13T20:46:19.767Z,95193.30
2018-04-13T20:48:46.569Z,95200.13
2018-04-13T20:51:13.219Z,95206.77
2018-04-13T20:53:39.945Z,95204.77
2018-04-13T20:56:06.583Z,95219.62
2018-04-13T20:58:33.238Z,95220.25
2018-04-13T21:00:59.831Z,95214.45
2018-04-13T21:03:26.539Z,95213.22
2018-04-13T21:05:53.236Z,95216.81
2018-04-13T21:08:19.843Z,95218.73
2018-04-13T21:10:46.515Z,95223.66
2018-04-13T21:13:13.171Z,95219.16
2018-04-13T21:15:39.809Z,95233.09
2018-04-13T21:18:06.412Z,95232.59
2018-04-13T21:20:33.080Z,95232.77
2018-04-13T21:22:59.723Z,95224.80
2018-04-13T21:25:26.433Z,95224.34
2018-04-13T21:27:53.182Z,95227.38
2018-04-13T21:30:19.781Z,95223.34
2018-04-13T21:32:46.430Z,95225.38
2018-04-13T21:35:13.117Z,95229.72
2018-04-13T21:37:42.422Z,95239.52
2018-04-13T21:40:09.057Z,95235.98
2018-04-13T21:42:35.744Z,95237.25
2018-04-13T21:45:03.843Z,95237.63
2018-04-13T21:47:29.019Z,95235.73
2018-04-13T21:49:55.694Z,95248.39
2018-04-13T21:52:22.322Z,95249.45
2018-04-13T21:54:48.981Z,95251.22
2018-04-13T21:57:15.620Z,95251.16
2018-04-13T21:59:44.694Z,95248.48
2018-04-13T22:02:09.230Z,95250.06
2018-04-13T22:04:35.872Z,95250.38
2018-04-13T22:07:02.543Z,95253.11
2018-04-13T22:09:29.229Z,95253.79
2018-04-13T22:11:58.205Z,95257.28
2018-04-13T22:14:22.643Z,95255.42
2018-04-13T22:16:49.320Z,95260.28
2018-04-13T22:19:15.994Z,95260.59
2018-04-13T22:21:43.874Z,95254.71
2018-04-13T22:24:09.445Z,95258.13
2018-04-13T22:26:36.076Z,95254.40
2018-04-13T22:29:02.708Z,95257.06
2018-04-13T22:31:30.646Z,95252.93
2018-04-13T22:33:56.037Z,95260.22
2018-04-13T22:36:23.461Z,95263.69
2018-04-13T22:38:50.058Z,95269.64
2018-04-13T22:41:16.737Z,95274.59
2018-04-13T22:43:43.333Z,95270.97
2018-04-13T22:46:09.960Z,95270.97
2018-04-13T22:48:36.606Z,95273.61
2018-04-13T22:51:03.275Z,95278.09
2018-04-13T22:53:29.878Z,95277.17
2018-04-13T22:55:56.557Z,95285.73
2018-04-13T22:58:23.186Z,95286.08
2018-04-13T23:00:49.824Z,95285.73
2018-04-13T23:03:16.463Z,95286.28
2018-04-13T23:05:43.174Z,95288.91
2018-04-13T23:08:09.806Z,95289.84
2018-04-13T23:10:36.448Z,95295.11
2018-04-13T23:13:03.114Z,95290.76
2018-04-13T23:15:29.754Z,95293.05
2018-04-13T23:17:56.393Z,95291.52
2018-04-13T23:20:23.032Z,95294.59
2018-04-13T23:22:49.634Z,95297.39
2018-04-13T23:25:16.257Z,95297.81
2018-04-13T23:27:42.905Z,95304.34
2018-04-13T23:30:09.582Z,95287.66
2018-04-13T23:32:36.239Z,95295.92
2018-04-13T23:35:02.833Z,95293.13
2018-04-13T23:37:29.509Z,95296.58
2018-04-13T23:39:56.101Z,95302.62
2018-04-13T23:42:22.871Z,95304.17
2018-04-13T23:44:49.608Z,95305.44
2018-04-13T23:47:16.219Z,95298.64
2018-04-13T23:49:42.858Z,95305.31
2018-04-13T23:52:09.497Z,95302.99
2018-04-13T23:54:36.143Z,95294.98
2018-04-13T23:57:02.815Z,95296.80
2018-04-13T23:59:29.484Z,95300.34
